createdAt,value
2022-10-13T00:01:17.963Z,100.00
2022-10-13T00:03:47.257Z,100.00
2022-10-13T00:06:23.815Z,100.00
2022-10-13T00:08:51.717Z,100.00
2022-10-13T00:11:22.798Z,100.00
2022-10-13T00:13:52.052Z,100.00
2022-10-13T00:16:21.793Z,100.00
2022-10-13T00:18:50.059Z,100.00
2022-10-13T00:21:22.431Z,100.00
2022-10-13T00:23:51.049Z,100.00
2022-10-13T00:26:23.018Z,100.00
2022-10-13T00:28:52.737Z,100.00
2022-10-13T00:31:25.364Z,100.00
2022-10-13T00:33:53.943Z,100.00
2022-10-13T00:36:23.581Z,100.00
2022-10-13T00:38:52.133Z,100.00
2022-10-13T00:41:20.502Z,100.00
2022-10-13T00:44:00.050Z,100.00
2022-10-13T00:46:33.634Z,100.00
2022-10-13T00:49:14.281Z,100.00
2022-10-13T00:51:49.527Z,100.00
2022-10-13T00:54:24.722Z,100.00
2022-10-13T00:56:54.007Z,100.00
2022-10-13T00:59:27.304Z,100.00
2022-10-13T01:01:57.316Z,100.00
2022-10-13T01:04:30.773Z,100.00
2022-10-13T01:06:59.466Z,100.00
2022-10-13T01:09:34.856Z,100.00
2022-10-13T01:12:42.282Z,100.00
2022-10-13T01:15:34.233Z,100.00
2022-10-13T01:18:30.313Z,100.00
2022-10-13T01:21:18.709Z,100.00
2022-10-13T01:24:28.091Z,100.00
2022-10-13T01:27:17.822Z,100.00
2022-10-13T01:30:12.821Z,100.00
2022-10-13T01:32:50.742Z,100.00
2022-10-13T01:35:50.441Z,100.00
2022-10-13T01:39:00.122Z,100.00
2022-10-13T01:41:37.662Z,100.00
2022-10-13T01:44:17.573Z,100.00
2022-10-13T01:46:54.882Z,100.00
2022-10-13T01:49:28.240Z,100.00
2022-10-13T01:52:00.159Z,100.00
2022-10-13T01:54:28.122Z,100.00
2022-10-13T01:56:57.517Z,100.00
2022-10-13T01:59:28.589Z,100.00
2022-10-13T02:02:28.777Z,100.00
2022-10-13T02:05:15.635Z,100.00
2022-10-13T02:07:54.375Z,100.00
2022-10-13T02:10:42.286Z,100.00
2022-10-13T02:13:14.568Z,100.00
2022-10-13T02:15:47.479Z,100.00
2022-10-13T02:18:18.525Z,100.00
2022-10-13T02:20:47.175Z,100.00
2022-10-13T02:23:17.015Z,100.00
2022-10-13T02:25:46.756Z,100.00
2022-10-13T02:28:15.311Z,100.00
2022-10-13T02:30:44.799Z,100.00
2022-10-13T02:33:14.375Z,100.00
2022-10-13T02:35:43.308Z,100.00
2022-10-13T02:38:12.912Z,100.00
2022-10-13T02:40:40.844Z,100.00
2022-10-13T02:43:08.520Z,100.00
2022-10-13T02:45:36.337Z,100.00
2022-10-13T02:48:04.480Z,100.00
2022-10-13T02:50:32.242Z,100.00
2022-10-13T02:53:00.116Z,100.00
2022-10-13T02:55:28.117Z,100.00
2022-10-13T02:57:58.936Z,100.00
2022-10-13T03:00:26.891Z,100.00
2022-10-13T03:02:54.852Z,100.00
2022-10-13T03:05:22.596Z,100.00
2022-10-13T03:07:50.303Z,100.00
2022-10-13T03:10:18.387Z,100.00
2022-10-13T03:12:46.086Z,100.00
2022-10-13T03:15:14.091Z,100.00
2022-10-13T03:17:42.034Z,100.00
2022-10-13T03:20:10.372Z,100.00
2022-10-13T03:22:38.091Z,100.00
2022-10-13T03:25:06.830Z,100.00
2022-10-13T03:27:34.706Z,100.00
2022-10-13T03:30:02.899Z,100.00
2022-10-13T03:32:31.825Z,100.00
2022-10-13T03:34:59.589Z,100.00
2022-10-13T03:37:30.638Z,100.00
2022-10-13T03:39:58.580Z,100.00
2022-10-13T03:42:26.293Z,100.00
2022-10-13T03:44:56.552Z,100.00
2022-10-13T03:47:24.775Z,100.00
2022-10-13T03:49:55.195Z,100.00
2022-10-13T03:52:23.755Z,100.00
2022-10-13T03:54:51.851Z,100.00
2022-10-13T03:57:19.613Z,100.00
2022-10-13T03:59:47.422Z,100.00
2022-10-13T04:02:15.315Z,100.00
2022-10-13T04:04:43.290Z,100.00
2022-10-13T04:07:10.983Z,100.00
2022-10-13T04:09:38.970Z,100.00
2022-10-13T04:12:06.690Z,100.00
2022-10-13T04:14:34.736Z,100.00
2022-10-13T04:17:09.117Z,100.00
2022-10-13T04:19:36.971Z,100.00
2022-10-13T04:22:06.367Z,100.00
2022-10-13T04:24:34.509Z,100.00
2022-10-13T04:27:02.268Z,100.00
2022-10-13T04:29:30.060Z,100.00
2022-10-13T04:32:00.177Z,100.00
2022-10-13T04:34:27.894Z,100.00
2022-10-13T04:36:55.652Z,100.00
2022-10-13T04:39:23.605Z,100.00
2022-10-13T04:41:51.963Z,100.00
2022-10-13T04:44:19.981Z,100.00
2022-10-13T04:46:47.853Z,100.00
2022-10-13T04:49:16.428Z,100.00
2022-10-13T04:51:44.525Z,100.00
2022-10-13T04:54:12.188Z,100.00
2022-10-13T04:56:40.054Z,100.00
2022-10-13T04:59:07.820Z,100.00
2022-10-13T05:01:36.202Z,100.00
2022-10-13T05:04:07.466Z,100.00
2022-10-13T05:06:58.900Z,100.00
2022-10-13T05:09:27.871Z,100.00
2022-10-13T05:11:55.556Z,100.00
2022-10-13T05:14:23.589Z,100.00
2022-10-13T05:16:51.577Z,100.00
2022-10-13T05:19:20.296Z,100.00
2022-10-13T05:21:50.616Z,100.00
2022-10-13T05:24:20.726Z,100.00
2022-10-13T05:26:50.434Z,100.00
2022-10-13T05:29:18.962Z,100.00
2022-10-13T05:31:47.057Z,100.00
2022-10-13T05:34:14.791Z,100.00
2022-10-13T05:36:43.101Z,100.00
2022-10-13T05:39:10.916Z,100.00
2022-10-13T05:41:39.530Z,99.99
2022-10-13T05:44:14.224Z,99.75
2022-10-13T05:46:54.487Z,100.00
2022-10-13T05:49:22.296Z,100.00
2022-10-13T05:51:53.704Z,100.00
2022-10-13T05:54:33.775Z,100.00
2022-10-13T05:57:10.517Z,100.00
2022-10-13T05:59:44.403Z,100.00
2022-10-13T06:02:16.055Z,100.00
2022-10-13T06:04:49.109Z,100.00
2022-10-13T06:07:17.706Z,100.00
2022-10-13T06:09:45.766Z,100.00
2022-10-13T06:12:13.705Z,100.00
2022-10-13T06:14:42.890Z,100.00
2022-10-13T06:17:12.596Z,100.00
2022-10-13T06:19:45.438Z,100.00
2022-10-13T06:22:13.182Z,99.86
2022-10-13T06:24:41.031Z,99.19
2022-10-13T06:27:10.830Z,97.49
2022-10-13T06:29:38.848Z,96.53
2022-10-13T06:32:07.281Z,96.28
2022-10-13T06:34:35.306Z,95.91
2022-10-13T06:37:03.017Z,95.81
2022-10-13T06:39:30.936Z,94.46
2022-10-13T06:42:01.733Z,93.47
2022-10-13T06:44:38.809Z,92.28
2022-10-13T06:47:06.650Z,91.67
2022-10-13T06:49:35.078Z,91.29
2022-10-13T06:52:03.229Z,90.91
2022-10-13T06:54:31.408Z,90.78
2022-10-13T06:56:59.610Z,90.55
2022-10-13T06:59:27.883Z,90.32
2022-10-13T07:01:55.761Z,90.26
2022-10-13T07:04:25.899Z,90.27
2022-10-13T07:06:55.787Z,89.95
2022-10-13T07:09:23.722Z,89.12
2022-10-13T07:11:51.446Z,88.36
2022-10-13T07:14:19.890Z,88.57
2022-10-13T07:16:50.413Z,88.52
2022-10-13T07:19:18.296Z,87.56
2022-10-13T07:21:46.229Z,85.59
2022-10-13T07:24:14.841Z,79.66
2022-10-13T07:26:42.753Z,74.44
2022-10-13T07:29:10.870Z,70.83
2022-10-13T07:31:38.641Z,69.82
2022-10-13T07:34:06.801Z,67.88
2022-10-13T07:36:35.685Z,62.01
2022-10-13T07:39:03.881Z,55.44
2022-10-13T07:41:33.444Z,50.10
2022-10-13T07:44:01.725Z,45.93
2022-10-13T07:46:29.907Z,43.25
2022-10-13T07:48:58.191Z,41.33
2022-10-13T07:51:26.155Z,39.12
2022-10-13T07:53:54.369Z,37.35
2022-10-13T07:56:22.063Z,36.47
2022-10-13T07:58:49.921Z,35.33
2022-10-13T08:01:18.027Z,33.53
2022-10-13T08:03:49.940Z,32.14
2022-10-13T08:06:19.263Z,31.69
2022-10-13T08:08:48.013Z,30.74
2022-10-13T08:11:18.120Z,30.15
2022-10-13T08:13:51.193Z,30.06
2022-10-13T08:16:22.042Z,29.87
2022-10-13T08:18:50.494Z,29.08
2022-10-13T08:24:12.834Z,28.39
2022-10-13T08:26:41.541Z,28.43
2022-10-13T08:29:25.034Z,28.23
2022-10-13T08:31:54.130Z,27.46
2022-10-13T08:34:24.430Z,27.55
2022-10-13T08:36:54.833Z,27.24
2022-10-13T08:39:24.698Z,27.11
2022-10-13T08:41:53.205Z,26.93
2022-10-13T08:47:22.044Z,26.49
2022-10-13T08:49:50.405Z,26.34
2022-10-13T08:52:24.764Z,26.45
2022-10-13T08:54:54.902Z,26.24
2022-10-13T08:57:24.432Z,25.54
2022-10-13T08:59:53.536Z,25.67
2022-10-13T09:02:31.260Z,25.32
2022-10-13T09:05:03.946Z,25.59
2022-10-13T09:07:37.253Z,24.69
2022-10-13T09:10:07.435Z,24.75
2022-10-13T09:12:35.242Z,24.55
2022-10-13T09:15:12.413Z,25.00
2022-10-13T09:17:41.799Z,24.89
2022-10-13T09:20:29.550Z,24.99
2022-10-13T09:23:08.128Z,25.25
2022-10-13T09:25:44.574Z,24.52
2022-10-13T09:28:29.871Z,24.00
2022-10-13T09:31:26.177Z,24.62
2022-10-13T09:34:14.531Z,24.44
2022-10-13T09:37:03.426Z,24.42
2022-10-13T09:39:33.904Z,24.80
2022-10-13T09:42:20.836Z,25.41
2022-10-13T09:44:58.907Z,25.49
2022-10-13T09:47:28.723Z,26.50
2022-10-13T09:50:19.014Z,26.17
2022-10-13T09:52:48.300Z,26.08
2022-10-13T09:55:32.221Z,26.05
2022-10-13T09:58:32.316Z,26.97
2022-10-13T10:01:00.746Z,27.28
2022-10-13T10:03:35.621Z,28.03
2022-10-13T10:06:12.384Z,28.46
2022-10-13T10:09:06.582Z,29.68
2022-10-13T10:11:44.161Z,31.07
2022-10-13T10:14:26.271Z,31.95
2022-10-13T10:17:04.129Z,34.15
2022-10-13T10:19:52.190Z,35.01
2022-10-13T10:22:44.321Z,35.94
2022-10-13T10:25:21.037Z,36.11
2022-10-13T10:28:16.729Z,36.91
2022-10-13T10:30:55.398Z,37.61
2022-10-13T10:33:50.068Z,38.19
2022-10-13T10:36:34.642Z,38.98
2022-10-13T10:39:23.605Z,39.26
2022-10-13T10:41:58.588Z,38.74
2022-10-13T10:44:32.282Z,39.27
2022-10-13T10:47:19.687Z,39.71
2022-10-13T10:49:57.372Z,39.69
2022-10-13T10:52:40.425Z,39.81
2022-10-13T10:55:31.682Z,40.31
2022-10-13T10:58:05.335Z,40.56
2022-10-13T11:00:42.008Z,41.03
2022-10-13T11:03:40.862Z,41.07
2022-10-13T11:06:18.312Z,41.36
2022-10-13T11:08:47.768Z,41.43
2022-10-13T11:11:29.263Z,41.20
2022-10-13T11:14:07.275Z,41.67
2022-10-13T11:16:40.805Z,41.63
2022-10-13T11:19:32.436Z,41.94
2022-10-13T11:22:00.572Z,41.66
2022-10-13T11:24:38.894Z,41.40
2022-10-13T11:27:16.245Z,41.23
2022-10-13T11:29:49.057Z,41.40
2022-10-13T11:32:46.488Z,41.08
2022-10-13T11:35:23.217Z,41.42
2022-10-13T11:38:07.613Z,41.09
2022-10-13T11:41:04.176Z,41.13
2022-10-13T11:44:13.452Z,41.20
2022-10-13T11:46:50.942Z,41.19
2022-10-13T11:49:37.604Z,41.28
2022-10-13T11:52:40.989Z,41.40
2022-10-13T11:55:17.737Z,42.12
2022-10-13T11:57:45.836Z,41.95
2022-10-13T12:00:19.112Z,41.69
2022-10-13T12:02:53.369Z,41.61
2022-10-13T12:05:24.790Z,42.40
2022-10-13T12:07:55.789Z,41.99
2022-10-13T12:10:34.574Z,41.77
2022-10-13T12:13:05.101Z,41.74
2022-10-13T12:15:34.020Z,42.00
2022-10-13T12:18:02.769Z,42.55
2022-10-13T12:20:33.128Z,42.29
2022-10-13T12:23:01.300Z,42.25
2022-10-13T12:25:31.269Z,41.92
2022-10-13T12:28:01.187Z,41.96
2022-10-13T12:30:36.369Z,42.52
2022-10-13T12:33:19.397Z,42.61
2022-10-13T12:35:47.391Z,42.58
2022-10-13T12:38:24.622Z,42.89
2022-10-13T12:40:54.432Z,42.42
2022-10-13T12:43:26.661Z,42.61
2022-10-13T12:45:54.681Z,42.56
2022-10-13T12:48:37.076Z,42.41
2022-10-13T12:51:19.961Z,42.39
2022-10-13T12:53:48.798Z,42.83
2022-10-13T12:56:28.408Z,43.10
2022-10-13T12:58:56.844Z,43.07
2022-10-13T13:01:35.255Z,43.04
2022-10-13T13:04:16.352Z,43.63
2022-10-13T13:07:02.049Z,43.62
2022-10-13T13:09:39.032Z,43.58
2022-10-13T13:12:22.904Z,43.80
2022-10-13T13:14:55.003Z,44.25
2022-10-13T13:17:53.293Z,43.90
2022-10-13T13:20:29.533Z,44.15
2022-10-13T13:22:58.173Z,44.07
2022-10-13T13:25:26.543Z,44.22
2022-10-13T13:27:54.381Z,44.40
2022-10-13T13:30:23.952Z,44.19
2022-10-13T13:32:52.288Z,44.84
2022-10-13T13:35:20.011Z,45.28
2022-10-13T13:37:50.557Z,45.70
2022-10-13T13:40:22.003Z,45.84
2022-10-13T13:42:50.073Z,45.88
2022-10-13T13:45:21.144Z,45.89
2022-10-13T13:47:50.532Z,46.04
2022-10-13T13:50:23.121Z,46.42
2022-10-13T13:53:00.104Z,46.52
2022-10-13T13:55:29.808Z,46.99
2022-10-13T13:57:58.294Z,47.50
2022-10-13T14:00:26.291Z,47.45
2022-10-13T14:02:57.575Z,47.97
2022-10-13T14:05:25.861Z,48.18
2022-10-13T14:07:55.977Z,48.63
2022-10-13T14:10:25.272Z,48.95
2022-10-13T14:12:53.432Z,48.88
2022-10-13T14:15:23.410Z,49.28
2022-10-13T14:17:54.456Z,49.46
2022-10-13T14:20:22.706Z,49.23
2022-10-13T14:22:50.647Z,49.26
2022-10-13T14:25:18.679Z,49.82
2022-10-13T14:27:46.678Z,49.52
2022-10-13T14:30:15.247Z,49.83
2022-10-13T14:32:42.995Z,49.77
2022-10-13T14:35:11.342Z,49.35
2022-10-13T14:37:39.638Z,49.67
2022-10-13T14:40:08.093Z,50.09
2022-10-13T14:42:36.045Z,50.78
2022-10-13T14:45:06.659Z,50.77
2022-10-13T14:47:34.617Z,51.06
2022-10-13T14:50:03.016Z,51.52
2022-10-13T14:52:30.792Z,51.29
2022-10-13T14:54:59.059Z,52.00
2022-10-13T14:57:27.002Z,52.13
2022-10-13T14:59:58.038Z,52.72
2022-10-13T15:02:29.977Z,53.29
2022-10-13T15:04:57.997Z,53.46
2022-10-13T15:07:25.948Z,53.71
2022-10-13T15:10:05.077Z,54.19
2022-10-13T15:12:34.277Z,54.90
2022-10-13T15:15:02.532Z,55.12
2022-10-13T15:17:31.282Z,55.83
2022-10-13T15:19:59.478Z,56.25
2022-10-13T15:22:27.277Z,56.82
2022-10-13T15:24:55.092Z,57.28
2022-10-13T15:27:23.316Z,58.01
2022-10-13T15:29:51.123Z,59.00
2022-10-13T15:32:20.419Z,59.52
2022-10-13T15:34:55.854Z,60.57
2022-10-13T15:37:23.608Z,61.32
2022-10-13T15:39:56.843Z,61.89
2022-10-13T15:42:25.386Z,62.33
2022-10-13T15:45:10.375Z,63.20
2022-10-13T15:47:39.601Z,64.50
2022-10-13T15:50:08.819Z,65.38
2022-10-13T15:52:41.129Z,66.19
2022-10-13T15:55:12.329Z,67.40
2022-10-13T15:57:40.352Z,68.34
2022-10-13T16:00:10.749Z,69.91
2022-10-13T16:02:42.562Z,70.57
2022-10-13T16:05:12.913Z,71.32
2022-10-13T16:07:41.679Z,72.18
2022-10-13T16:10:12.421Z,72.67
2022-10-13T16:12:44.401Z,73.05
2022-10-13T16:15:17.811Z,74.15
2022-10-13T16:17:46.453Z,74.71
2022-10-13T16:20:14.827Z,75.40
2022-10-13T16:22:42.803Z,75.86
2022-10-13T16:25:11.883Z,76.15
2022-10-13T16:27:44.034Z,76.77
2022-10-13T16:30:13.283Z,77.80
2022-10-13T16:32:41.322Z,78.27
2022-10-13T16:35:09.458Z,78.69
2022-10-13T16:37:37.479Z,78.86
2022-10-13T16:40:05.603Z,79.15
2022-10-13T16:42:33.520Z,79.54
2022-10-13T16:45:01.395Z,79.90
2022-10-13T16:47:32.025Z,80.62
2022-10-13T16:49:59.857Z,81.13
2022-10-13T16:52:27.789Z,81.86
2022-10-13T16:54:55.545Z,82.50
2022-10-13T16:57:25.551Z,82.82
2022-10-13T16:59:53.321Z,83.49
2022-10-13T17:02:21.177Z,84.13
2022-10-13T17:04:49.413Z,84.51
2022-10-13T17:07:17.179Z,84.83
2022-10-13T17:09:45.186Z,85.24
2022-10-13T17:12:12.983Z,85.64
2022-10-13T17:14:41.433Z,86.06
2022-10-13T17:17:09.197Z,86.67
2022-10-13T17:19:37.136Z,86.96
2022-10-13T17:22:04.852Z,87.31
2022-10-13T17:24:33.297Z,87.13
2022-10-13T17:27:01.077Z,87.02
2022-10-13T17:29:29.454Z,86.82
2022-10-13T17:31:57.270Z,86.69
2022-10-13T17:34:25.291Z,86.38
2022-10-13T17:36:53.050Z,86.22
2022-10-13T17:39:21.089Z,86.40
2022-10-13T17:41:48.895Z,86.14
2022-10-13T17:44:20.646Z,86.04
2022-10-13T17:46:50.075Z,86.32
2022-10-13T17:49:18.413Z,86.39
2022-10-13T17:51:46.591Z,86.32
2022-10-13T17:54:16.650Z,86.66
2022-10-13T17:56:48.718Z,87.24
2022-10-13T17:59:17.864Z,87.76
2022-10-13T18:01:46.526Z,87.88
2022-10-13T18:04:18.502Z,88.43
2022-10-13T18:06:47.209Z,88.82
2022-10-13T18:09:20.570Z,89.02
2022-10-13T18:11:51.006Z,89.16
2022-10-13T18:14:21.907Z,89.40
2022-10-13T18:16:51.649Z,89.43
2022-10-13T18:19:21.300Z,89.69
2022-10-13T18:21:49.540Z,89.84
2022-10-13T18:24:17.323Z,90.09
2022-10-13T18:26:45.639Z,90.21
2022-10-13T18:29:13.908Z,90.58
2022-10-13T18:31:42.439Z,90.83
2022-10-13T18:34:16.032Z,90.99
2022-10-13T18:36:50.344Z,91.64
2022-10-13T18:39:25.778Z,91.87
2022-10-13T18:41:54.675Z,91.83
2022-10-13T18:44:23.553Z,92.08
2022-10-13T18:46:52.988Z,92.28
2022-10-13T18:49:23.894Z,92.56
2022-10-13T18:51:52.166Z,92.59
2022-10-13T18:54:20.566Z,92.73
2022-10-13T18:56:48.566Z,92.83
2022-10-13T18:59:17.974Z,92.97
2022-10-13T19:01:46.232Z,93.26
2022-10-13T19:04:16.743Z,93.26
2022-10-13T19:06:46.421Z,93.35
2022-10-13T19:09:16.025Z,93.59
2022-10-13T19:11:44.039Z,93.52
2022-10-13T19:14:14.306Z,93.58
2022-10-13T19:16:44.144Z,93.57
2022-10-13T19:19:12.751Z,93.74
2022-10-13T19:21:41.855Z,94.10
2022-10-13T19:24:10.018Z,94.13
2022-10-13T19:26:38.042Z,94.11
2022-10-13T19:29:13.100Z,94.21
2022-10-13T19:31:43.154Z,94.23
2022-10-13T19:34:13.160Z,93.77
2022-10-13T19:36:46.498Z,93.63
2022-10-13T19:39:23.398Z,93.37
2022-10-13T19:41:53.040Z,93.18
2022-10-13T19:44:22.273Z,92.99
2022-10-13T19:46:50.768Z,92.81
2022-10-13T19:49:21.036Z,92.38
2022-10-13T19:51:51.518Z,91.89
2022-10-13T19:54:21.690Z,91.97
2022-10-13T19:56:50.743Z,91.95
2022-10-13T19:59:19.793Z,91.92
2022-10-13T20:01:48.258Z,91.91
2022-10-13T20:04:18.534Z,91.67
2022-10-13T20:06:47.569Z,91.64
2022-10-13T20:09:15.808Z,91.65
2022-10-13T20:11:46.496Z,91.23
2022-10-13T20:14:15.408Z,91.03
2022-10-13T20:16:43.625Z,91.16
2022-10-13T20:19:14.107Z,91.03
2022-10-13T20:21:43.456Z,91.05
2022-10-13T20:24:13.120Z,91.33
2022-10-13T20:26:41.171Z,91.22
2022-10-13T20:29:09.275Z,91.45
2022-10-13T20:31:37.263Z,91.69
2022-10-13T20:34:05.088Z,92.02
2022-10-13T20:36:38.266Z,92.26
2022-10-13T20:39:07.010Z,92.63
2022-10-13T20:41:35.343Z,92.67
2022-10-13T20:44:03.448Z,92.78
2022-10-13T20:46:34.504Z,93.27
2022-10-13T20:49:10.841Z,93.16
2022-10-13T20:51:39.794Z,93.88
2022-10-13T20:54:09.970Z,93.55
2022-10-13T20:56:38.209Z,93.71
2022-10-13T20:59:08.816Z,94.18
2022-10-13T21:01:37.797Z,94.20
2022-10-13T21:04:06.426Z,94.19
2022-10-13T21:06:35.851Z,94.72
2022-10-13T21:09:05.754Z,94.58
2022-10-13T21:11:35.447Z,94.54
2022-10-13T21:14:06.851Z,94.67
2022-10-13T21:16:37.956Z,94.53
2022-10-13T21:19:10.211Z,94.51
2022-10-13T21:21:39.012Z,94.62
2022-10-13T21:24:08.424Z,94.56
2022-10-13T21:26:37.261Z,94.17
2022-10-13T21:29:06.818Z,94.32
2022-10-13T21:31:35.636Z,94.03
2022-10-13T21:34:03.598Z,94.01
2022-10-13T21:36:34.029Z,93.63
2022-10-13T21:39:06.594Z,93.50
2022-10-13T21:41:37.156Z,92.99
2022-10-13T21:44:05.196Z,92.71
2022-10-13T21:46:35.130Z,92.37
2022-10-13T21:49:05.724Z,92.26
2022-10-13T21:51:36.563Z,92.00
2022-10-13T21:54:09.945Z,92.10
2022-10-13T21:56:38.824Z,91.95
2022-10-13T21:59:07.340Z,91.82
2022-10-13T22:01:35.532Z,92.10
2022-10-13T22:04:12.809Z,92.31
2022-10-13T22:06:40.769Z,92.35
2022-10-13T22:09:08.501Z,92.48
2022-10-13T22:11:38.201Z,92.40
2022-10-13T22:14:13.002Z,92.14
2022-10-13T22:16:44.743Z,92.58
2022-10-13T22:19:13.408Z,92.24
2022-10-13T22:21:44.068Z,92.29
2022-10-13T22:24:17.638Z,92.71
2022-10-13T22:26:47.203Z,92.59
2022-10-13T22:29:19.426Z,92.64
2022-10-13T22:31:48.805Z,92.30
2022-10-13T22:34:17.693Z,92.76
2022-10-13T22:36:45.663Z,92.45
2022-10-13T22:39:14.383Z,92.67
2022-10-13T22:41:42.753Z,92.71
2022-10-13T22:44:10.836Z,92.85
2022-10-13T22:46:39.583Z,92.84
2022-10-13T22:49:11.789Z,93.40
2022-10-13T22:51:39.723Z,93.27
2022-10-13T22:54:07.701Z,93.13
2022-10-13T22:56:35.706Z,93.35
2022-10-13T22:59:06.677Z,93.65
2022-10-13T23:01:34.894Z,93.85
2022-10-13T23:04:03.613Z,94.01
2022-10-13T23:06:33.819Z,93.72
2022-10-13T23:09:05.002Z,93.98
2022-10-13T23:11:34.121Z,94.52
2022-10-13T23:14:03.473Z,94.79
2022-10-13T23:16:32.874Z,94.76
2022-10-13T23:19:01.936Z,94.65
2022-10-13T23:21:31.019Z,94.69
2022-10-13T23:24:04.245Z,95.14
2022-10-13T23:26:33.439Z,95.32
2022-10-13T23:29:03.137Z,95.21
2022-10-13T23:31:31.499Z,95.06
2022-10-13T23:33:59.609Z,95.44
2022-10-13T23:36:30.445Z,95.31
2022-10-13T23:39:05.558Z,95.16
2022-10-13T23:41:37.091Z,95.37
2022-10-13T23:44:05.555Z,95.63
2022-10-13T23:46:33.823Z,96.23
2022-10-13T23:49:01.855Z,95.82
2022-10-13T23:51:30.563Z,95.98
2022-10-13T23:53:59.529Z,96.54
2022-10-13T23:56:27.737Z,96.13
2022-10-13T23:58:55.524Z,96.49
